Time;durP1;ratioP1;P1;durP2;ratioP2;P2;SDS_P1;SDS_P2;PMS_P1;PMS_P2;Temp;Humidity;BMP_temperature;BMP_pressure;BME280_temperature;BME280_humidity;BME280_pressure;Samples;Min_cycle;Max_cycle;Signal;HPM_P1;HPM_P2
2022/05/22 00:02:15;;;;;;;9.63;4.00;;;;;;;;;;10275818;28;20075;-60
2022/05/22 00:07:13;;;;;;;6.45;3.53;;;;;;;;;;10275167;28;20502;-59
2022/05/22 00:12:12;;;;;;;5.30;3.85;;;;;;;;;;10275555;28;20094;-60
2022/05/22 00:17:11;;;;;;;9.10;4.20;;;;;;;;;;10260853;28;20072;-59
2022/05/22 00:22:10;;;;;;;5.85;3.55;;;;;;;;;;10275163;28;20053;-59
2022/05/22 00:27:08;;;;;;;5.30;3.53;;;;;;;;;;10268084;28;20075;-60
2022/05/22 00:32:07;;;;;;;3.83;3.17;;;;;;;;;;10268805;28;20091;-60
2022/05/22 00:37:07;;;;;;;6.47;3.60;;;;;;;;;;10270542;28;20278;-60
2022/05/22 00:42:13;;;;;;;5.35;3.22;;;;;;;;;;10270584;28;20072;-60
2022/05/22 00:47:11;;;;;;;7.22;3.22;;;;;;;;;;10269674;28;20094;-60
2022/05/22 00:52:14;;;;;;;3.67;3.30;;;;;;;;;;10271983;28;20081;-60
2022/05/22 00:57:14;;;;;;;4.65;3.35;;;;;;;;;;10274015;28;20044;-60
2022/05/22 01:02:15;;;;;;;9.00;3.65;;;;;;;;;;10272809;28;20063;-60
2022/05/22 01:07:14;;;;;;;4.43;3.60;;;;;;;;;;10274920;28;20413;-59
2022/05/22 01:12:15;;;;;;;7.85;3.20;;;;;;;;;;10288684;28;20079;-60
2022/05/22 01:17:16;;;;;;;3.90;3.58;;;;;;;;;;10271188;28;20045;-60
2022/05/22 01:22:16;;;;;;;5.05;3.65;;;;;;;;;;10277721;28;20056;-60
2022/05/22 01:27:15;;;;;;;6.60;3.03;;;;;;;;;;10275555;28;20501;-60
2022/05/22 01:32:18;;;;;;;;;;;;;;;;;;10276406;28;20095;-60
2022/05/22 01:37:19;;;;;;;10.38;3.53;;;;;;;;;;10271377;28;20353;-60
2022/05/22 01:42:17;;;;;;;3.95;3.25;;;;;;;;;;10271426;28;20080;-61
2022/05/22 01:47:16;;;;;;;7.72;3.28;;;;;;;;;;10263208;28;20041;-60
2022/05/22 01:52:15;;;;;;;4.35;2.80;;;;;;;;;;10269556;28;20081;-60
2022/05/22 01:57:15;;;;;;;5.90;3.05;;;;;;;;;;10270208;28;20045;-60
2022/05/22 02:02:13;;;;;;;5.82;3.25;;;;;;;;;;10274982;28;20073;-60
2022/05/22 02:12:30;;;;;;;5.88;3.30;;;;;;;;;;10285216;28;20107;-60
2022/05/22 02:17:31;;;;;;;3.40;3.10;;;;;;;;;;10270102;28;20085;-59
2022/05/22 02:22:30;;;;;;;5.78;2.72;;;;;;;;;;10270844;28;20039;-59
2022/05/22 02:27:28;;;;;;;5.30;3.15;;;;;;;;;;10268178;28;20080;-59
2022/05/22 02:32:27;;;;;;;3.92;3.28;;;;;;;;;;10270659;28;20072;-59
2022/05/22 02:37:26;;;;;;;8.07;3.40;;;;;;;;;;10269802;28;20310;-59
2022/05/22 02:42:24;;;;;;;4.30;3.42;;;;;;;;;;10270048;28;20322;-60
2022/05/22 02:47:23;;;;;;;11.82;4.50;;;;;;;;;;10269215;28;20064;-59
2022/05/22 02:52:22;;;;;;;5.50;3.63;;;;;;;;;;10270324;28;20069;-59
2022/05/22 02:57:22;;;;;;;5.50;3.58;;;;;;;;;;10259841;28;20073;-59
2022/05/22 03:02:30;;;;;;;15.13;9.50;;;;;;;;;;10268055;28;20053;-59
2022/05/22 03:07:30;;;;;;;12.63;8.32;;;;;;;;;;10268597;28;20051;-59
2022/05/22 03:12:48;;;;;;;7.15;4.60;;;;;;;;;;10269938;28;20092;-59
2022/05/22 03:17:50;;;;;;;6.82;4.38;;;;;;;;;;10270188;28;20140;-58
2022/05/22 03:22:51;;;;;;;5.38;4.35;;;;;;;;;;10270424;28;20083;-59
2022/05/22 03:27:49;;;;;;;6.90;4.40;;;;;;;;;;10268400;28;20056;-59
2022/05/22 03:32:48;;;;;;;6.22;4.55;;;;;;;;;;10269115;28;20084;-58
2022/05/22 03:37:46;;;;;;;4.80;3.75;;;;;;;;;;10275155;28;20041;-59
2022/05/22 03:42:46;;;;;;;5.43;3.67;;;;;;;;;;10276910;28;20631;-58
2022/05/22 03:47:44;;;;;;;5.15;3.92;;;;;;;;;;10276356;28;20048;-58
2022/05/22 03:52:46;;;;;;;6.55;4.13;;;;;;;;;;10276164;28;20080;-60
2022/05/22 03:57:59;;;;;;;5.88;3.50;;;;;;;;;;10276540;28;20060;-61
2022/05/22 04:02:59;;;;;;;6.20;3.88;;;;;;;;;;10276306;28;20052;-61
2022/05/22 04:07:57;;;;;;;4.38;3.95;;;;;;;;;;10275945;28;20087;-61
2022/05/22 04:13:06;;;;;;;8.05;3.85;;;;;;;;;;10276846;28;20454;-61
2022/05/22 04:18:05;;;;;;;5.75;3.58;;;;;;;;;;10277345;28;20091;-60
2022/05/22 04:28:20;;;;;;;4.65;3.50;;;;;;;;;;10272588;28;20053;-60
2022/05/22 04:33:27;;;;;;;6.18;4.28;;;;;;;;;;10275427;28;20130;-60
2022/05/22 04:38:25;;;;;;;3.80;3.28;;;;;;;;;;10284014;28;20103;-60
2022/05/22 04:43:25;;;;;;;7.28;3.65;;;;;;;;;;10283269;28;20493;-60
2022/05/22 04:48:25;;;;;;;5.70;3.67;;;;;;;;;;10268418;28;20080;-60
2022/05/22 04:53:29;;;;;;;8.07;6.50;;;;;;;;;;10263008;28;20450;-60
2022/05/22 04:58:49;;;;;;;6.25;5.47;;;;;;;;;;10275637;28;20056;-60
2022/05/22 05:03:48;;;;;;;9.70;4.45;;;;;;;;;;10264962;28;20080;-60
2022/05/22 05:08:48;;;;;;;8.07;3.95;;;;;;;;;;10271177;28;20087;-60
2022/05/22 05:13:56;;;;;;;8.00;4.32;;;;;;;;;;10260614;28;20092;-60
2022/05/22 05:18:54;;;;;;;8.90;4.10;;;;;;;;;;10252301;28;20171;-59
2022/05/22 05:23:55;;;;;;;7.55;3.35;;;;;;;;;;10248845;28;20064;-60
2022/05/22 05:28:56;;;;;;;15.60;2.97;;;;;;;;;;10263861;28;20056;-60
2022/05/22 05:34:01;;;;;;;14.57;2.28;;;;;;;;;;10247908;28;20080;-62
2022/05/22 05:39:27;;;;;;;6.13;2.63;;;;;;;;;;10251912;28;20060;-60
2022/05/22 05:44:36;;;;;;;5.20;2.95;;;;;;;;;;10246900;28;20333;-60
2022/05/22 05:49:46;;;;;;;7.93;3.03;;;;;;;;;;10266938;28;20104;-61
2022/05/22 05:55:10;;;;;;;9.85;3.40;;;;;;;;;;10259079;28;20128;-60
2022/05/22 06:00:33;;;;;;;8.02;2.35;;;;;;;;;;10249749;28;20099;-59
2022/05/22 06:05:31;;;;;;;9.13;3.00;;;;;;;;;;10239593;28;20037;-61
2022/05/22 06:10:33;;;;;;;11.30;3.33;;;;;;;;;;10245956;28;20065;-60
2022/05/22 06:15:45;;;;;;;16.38;2.97;;;;;;;;;;10259903;28;20080;-60
2022/05/22 06:20:43;;;;;;;9.68;2.45;;;;;;;;;;10241312;28;20045;-59
2022/05/22 06:25:50;;;;;;;10.65;3.42;;;;;;;;;;10240510;28;20089;-60
2022/05/22 06:31:09;;;;;;;11.88;2.88;;;;;;;;;;10250504;28;20077;-60
2022/05/22 06:36:19;;;;;;;7.38;3.10;;;;;;;;;;10254495;28;20095;-60
2022/05/22 06:41:17;;;;;;;11.95;2.97;;;;;;;;;;10256564;28;20073;-61
2022/05/22 06:46:36;;;;;;;8.07;3.40;;;;;;;;;;10256663;28;20095;-60
2022/05/22 06:52:00;;;;;;;11.45;2.70;;;;;;;;;;10259152;28;20088;-60
2022/05/22 06:57:18;;;;;;;12.70;3.17;;;;;;;;;;10265980;28;20053;-60
2022/05/22 07:02:43;;;;;;;8.05;2.47;;;;;;;;;;10260674;28;20096;-60
2022/05/22 07:07:47;;;;;;;6.40;2.20;;;;;;;;;;10254159;28;20067;-59
2022/05/22 07:13:06;;;;;;;7.78;2.30;;;;;;;;;;10270713;28;20092;-60
2022/05/22 07:18:17;;;;;;;5.72;2.67;;;;;;;;;;10270443;28;20068;-60
2022/05/22 07:23:30;;;;;;;8.23;2.90;;;;;;;;;;10268854;28;20071;-60
2022/05/22 07:29:01;;;;;;;11.25;2.88;;;;;;;;;;10273461;28;20182;-59
2022/05/22 07:34:40;;;;;;;11.68;3.30;;;;;;;;;;10305901;28;20123;-59
2022/05/22 07:39:58;;;;;;;12.13;2.42;;;;;;;;;;10269581;28;20095;-59
2022/05/22 07:44:56;;;;;;;8.05;3.05;;;;;;;;;;10271592;28;20080;-59
2022/05/22 07:50:18;;;;;;;13.40;3.65;;;;;;;;;;10297967;28;20366;-60
2022/05/22 07:55:25;;;;;;;6.40;3.17;;;;;;;;;;10279483;28;20458;-61
2022/05/22 08:00:47;;;;;;;10.80;4.13;;;;;;;;;;10263208;28;20418;-59
2022/05/22 08:06:06;;;;;;;7.50;2.90;;;;;;;;;;10259287;28;20441;-59
2022/05/22 08:11:08;;;;;;;6.65;2.78;;;;;;;;;;10266978;28;20046;-58
2022/05/22 08:16:25;;;;;;;10.68;3.88;;;;;;;;;;10282435;28;20433;-59
2022/05/22 08:21:37;;;;;;;8.00;2.78;;;;;;;;;;10274593;28;20063;-59
2022/05/22 08:26:41;;;;;;;5.57;2.90;;;;;;;;;;10272370;28;20454;-59
2022/05/22 08:31:41;;;;;;;7.82;3.47;;;;;;;;;;10267473;28;20076;-59
2022/05/22 08:36:42;;;;;;;12.23;3.13;;;;;;;;;;10267511;28;20053;-59
2022/05/22 08:41:42;;;;;;;7.88;2.55;;;;;;;;;;10267673;28;20079;-60
2022/05/22 08:46:49;;;;;;;10.07;4.60;;;;;;;;;;10267719;28;20049;-59
2022/05/22 08:51:51;;;;;;;8.23;4.57;;;;;;;;;;10268612;28;20474;-59
2022/05/22 09:02:10;;;;;;;11.60;4.95;;;;;;;;;;10288489;28;20470;-59
2022/05/22 09:07:17;;;;;;;6.18;3.22;;;;;;;;;;10268439;28;20444;-59
2022/05/22 09:12:24;;;;;;;7.88;3.55;;;;;;;;;;10268525;28;20087;-59
2022/05/22 09:17:25;;;;;;;4.03;2.60;;;;;;;;;;10257337;28;20087;-60
2022/05/22 09:22:28;;;;;;;6.05;2.70;;;;;;;;;;10250605;28;20080;-61
2022/05/22 09:27:32;;;;;;;5.97;2.50;;;;;;;;;;10257046;28;20073;-61
2022/05/22 09:32:39;;;;;;;5.95;2.50;;;;;;;;;;10255734;28;20065;-61
2022/05/22 09:37:42;;;;;;;10.10;2.65;;;;;;;;;;10262974;28;20072;-60
2022/05/22 09:42:57;;;;;;;5.55;2.20;;;;;;;;;;10248496;28;20473;-62
2022/05/22 09:48:03;;;;;;;6.05;2.88;;;;;;;;;;10266079;28;20199;-61
2022/05/22 09:53:27;;;;;;;3.80;2.50;;;;;;;;;;10263812;28;20075;-61
2022/05/22 09:58:25;;;;;;;;;;;;;;;;;;10260674;28;20113;-61
2022/05/22 10:03:33;;;;;;;3.90;2.05;;;;;;;;;;10267701;28;19921;-60
2022/05/22 10:08:38;;;;;;;4.57;2.90;;;;;;;;;;10262915;28;20047;-60
2022/05/22 10:13:41;;;;;;;7.85;3.80;;;;;;;;;;10262340;28;20072;-60
2022/05/22 10:18:45;;;;;;;3.33;2.10;;;;;;;;;;10266007;28;20437;-60
2022/05/22 10:23:55;;;;;;;3.40;2.30;;;;;;;;;;10260878;28;20069;-60
2022/05/22 10:28:56;;;;;;;4.03;1.58;;;;;;;;;;10257237;28;20117;-60
2022/05/22 10:33:58;;;;;;;10.23;2.45;;;;;;;;;;10263069;28;20482;-61
2022/05/22 10:39:01;;;;;;;16.98;2.45;;;;;;;;;;10268168;28;20072;-60
2022/05/22 10:43:59;;;;;;;;;;;;;;;;;;10269617;28;20087;-62
2022/05/22 10:48:58;;;;;;;6.53;1.42;;;;;;;;;;10274811;28;20293;-61
2022/05/22 10:53:59;;;;;;;11.07;2.17;;;;;;;;;;10276937;28;20352;-61
2022/05/22 10:58:58;;;;;;;3.63;2.10;;;;;;;;;;10277525;28;20426;-61
2022/05/22 11:04:05;;;;;;;6.32;2.15;;;;;;;;;;10275081;28;20076;-61
2022/05/22 11:09:06;;;;;;;4.45;1.55;;;;;;;;;;10275927;28;20076;-61
2022/05/22 11:14:09;;;;;;;13.50;2.72;;;;;;;;;;10276210;28;20083;-61
2022/05/22 11:19:08;;;;;;;4.80;1.40;;;;;;;;;;10274664;28;20065;-61
2022/05/22 11:24:23;;;;;;;7.22;2.03;;;;;;;;;;10276244;28;20048;-61
2022/05/22 11:29:31;;;;;;;4.88;2.20;;;;;;;;;;10273057;28;20202;-60
2022/05/22 11:34:46;;;;;;;3.47;1.35;;;;;;;;;;10280666;28;20085;-61
2022/05/22 11:39:58;;;;;;;3.72;2.15;;;;;;;;;;10283622;28;20049;-61
2022/05/22 11:45:07;;;;;;;4.30;2.83;;;;;;;;;;10311256;28;20080;-61
2022/05/22 11:50:11;;;;;;;4.38;2.08;;;;;;;;;;10271669;28;20057;-61
2022/05/22 11:55:15;;;;;;;3.08;2.22;;;;;;;;;;10263671;28;20076;-61
2022/05/22 12:00:15;;;;;;;2.38;1.60;;;;;;;;;;10269089;28;20071;-61
2022/05/22 12:05:22;;;;;;;5.22;1.73;;;;;;;;;;10265170;28;20490;-61
2022/05/22 12:10:24;;;;;;;5.15;1.50;;;;;;;;;;10251715;28;20068;-60
2022/05/22 12:15:26;;;;;;;5.93;1.80;;;;;;;;;;10262292;28;20068;-60
2022/05/22 12:20:27;;;;;;;6.57;2.03;;;;;;;;;;10269234;28;20565;-61
2022/05/22 12:25:27;;;;;;;8.18;1.50;;;;;;;;;;10258704;28;20064;-60
2022/05/22 12:30:27;;;;;;;3.42;1.67;;;;;;;;;;10276006;28;20056;-62
2022/05/22 12:35:27;;;;;;;5.60;2.08;;;;;;;;;;10267817;28;20079;-60
2022/05/22 12:40:29;;;;;;;3.55;1.58;;;;;;;;;;10274339;28;20068;-60
2022/05/22 12:45:29;;;;;;;4.60;1.50;;;;;;;;;;10274710;28;20079;-60
2022/05/22 12:50:32;;;;;;;5.28;2.10;;;;;;;;;;10268735;28;20111;-61
2022/05/22 12:55:33;;;;;;;4.88;1.35;;;;;;;;;;10274487;28;20072;-61
2022/05/22 13:00:34;;;;;;;4.75;1.48;;;;;;;;;;10265102;28;20069;-61
2022/05/22 13:05:34;;;;;;;1.58;1.13;;;;;;;;;;10270414;28;20449;-61
2022/05/22 13:10:58;;;;;;;1.53;1.27;;;;;;;;;;10261401;28;20506;-60
2022/05/22 13:15:58;;;;;;;4.85;2.00;;;;;;;;;;10268264;28;20065;-60
2022/05/22 13:20:57;;;;;;;7.15;1.50;;;;;;;;;;10260839;28;20073;-61
2022/05/22 13:25:57;;;;;;;4.05;1.42;;;;;;;;;;10254649;28;20099;-61
2022/05/22 13:30:58;;;;;;;10.85;2.45;;;;;;;;;;10266133;28;20084;-60
2022/05/22 13:35:58;;;;;;;3.17;1.98;;;;;;;;;;10258276;28;20091;-61
2022/05/22 13:41:07;;;;;;;3.38;1.08;;;;;;;;;;10271526;28;20072;-60
2022/05/22 13:46:23;;;;;;;7.93;1.38;;;;;;;;;;10249955;28;20419;-60
2022/05/22 13:56:49;;;;;;;8.43;1.50;;;;;;;;;;10260484;28;20446;-60
2022/05/22 14:01:48;;;;;;;10.20;1.40;;;;;;;;;;10243431;28;20072;-60
2022/05/22 14:06:50;;;;;;;1.73;1.30;;;;;;;;;;10259207;28;20084;-60
2022/05/22 14:11:51;;;;;;;3.70;1.67;;;;;;;;;;10265525;28;20069;-61
2022/05/22 14:16:54;;;;;;;3.08;1.50;;;;;;;;;;10261991;28;20072;-61
2022/05/22 14:21:54;;;;;;;8.10;1.70;;;;;;;;;;10263339;28;20513;-61
2022/05/22 14:26:53;;;;;;;6.13;1.95;;;;;;;;;;10252285;28;20056;-61
2022/05/22 14:31:53;;;;;;;7.65;2.20;;;;;;;;;;10257523;28;20080;-61
2022/05/22 14:36:52;;;;;;;3.65;1.75;;;;;;;;;;10260420;28;20099;-61
2022/05/22 14:41:52;;;;;;;4.30;1.60;;;;;;;;;;10261590;28;20068;-62
2022/05/22 14:46:52;;;;;;;3.83;1.75;;;;;;;;;;10262147;28;20068;-61
2022/05/22 14:51:53;;;;;;;5.78;1.33;;;;;;;;;;10259226;28;20044;-61
2022/05/22 14:56:58;;;;;;;8.57;1.92;;;;;;;;;;10261548;28;20123;-60
2022/05/22 15:01:56;;;;;;;3.30;1.10;;;;;;;;;;10266903;28;20073;-60
2022/05/22 15:07:00;;;;;;;1.67;1.52;;;;;;;;;;10261402;28;20451;-61
2022/05/22 15:12:05;;;;;;;2.70;1.60;;;;;;;;;;10287011;28;20061;-65
2022/05/22 15:17:13;;;;;;;4.30;1.58;;;;;;;;;;10267933;28;20076;-60
2022/05/22 15:27:38;;;;;;;4.78;1.50;;;;;;;;;;10268159;28;20095;-61
2022/05/22 15:32:41;;;;;;;3.75;2.08;;;;;;;;;;10263871;28;20125;-60
2022/05/22 15:37:45;;;;;;;3.22;2.50;;;;;;;;;;10261123;28;20093;-61
2022/05/22 15:42:43;;;;;;;;;;;;;;;;;;10258825;28;20152;-61
2022/05/22 15:47:56;;;;;;;4.35;1.77;;;;;;;;;;10256694;28;19963;-61
2022/05/22 15:52:55;;;;;;;6.88;1.92;;;;;;;;;;10265970;28;20113;-60
2022/05/22 15:57:54;;;;;;;6.88;3.53;;;;;;;;;;10280952;28;20092;-61
2022/05/22 16:02:56;;;;;;;4.32;2.05;;;;;;;;;;10265419;28;20087;-61
2022/05/22 16:07:55;;;;;;;3.25;2.85;;;;;;;;;;10254376;28;20064;-61
2022/05/22 16:12:53;;;;;;;5.93;3.65;;;;;;;;;;10267575;28;20087;-61
2022/05/22 16:17:56;;;;;;;5.63;2.88;;;;;;;;;;10265999;28;20091;-61
2022/05/22 16:22:55;;;;;;;6.20;3.28;;;;;;;;;;10265431;28;20431;-60
2022/05/22 16:27:53;;;;;;;3.78;2.50;;;;;;;;;;10257971;28;20076;-60
2022/05/22 16:32:52;;;;;;;3.10;2.70;;;;;;;;;;10255183;28;20509;-60
2022/05/22 16:37:52;;;;;;;3.58;2.88;;;;;;;;;;10276870;28;20069;-59
2022/05/22 16:42:50;;;;;;;8.88;4.72;;;;;;;;;;10263362;28;20080;-60
2022/05/22 16:53:07;;;;;;;8.10;4.70;;;;;;;;;;10263292;28;20079;-60
2022/05/22 16:58:11;;;;;;;9.18;3.83;;;;;;;;;;10264670;28;20095;-58
2022/05/22 17:03:13;;;;;;;8.13;3.05;;;;;;;;;;10266405;28;20076;-59
2022/05/22 17:08:15;;;;;;;6.72;2.83;;;;;;;;;;10264997;28;20128;-59
2022/05/22 17:13:13;;;;;;;3.70;2.30;;;;;;;;;;10274709;28;20076;-58
2022/05/22 17:18:11;;;;;;;7.75;3.13;;;;;;;;;;10266189;28;20072;-58
2022/05/22 17:23:11;;;;;;;7.97;6.22;;;;;;;;;;10262595;28;20083;-59
2022/05/22 17:28:11;;;;;;;6.13;4.75;;;;;;;;;;10274833;28;20100;-59
2022/05/22 17:33:11;;;;;;;5.65;3.03;;;;;;;;;;10264116;28;20077;-59
2022/05/22 17:38:16;;;;;;;7.07;2.45;;;;;;;;;;10263221;28;20421;-58
2022/05/22 17:43:16;;;;;;;11.52;2.72;;;;;;;;;;10262671;28;20499;-59
2022/05/22 17:48:16;;;;;;;5.80;2.00;;;;;;;;;;10263201;28;20525;-58
2022/05/22 17:53:15;;;;;;;5.40;3.13;;;;;;;;;;10262480;28;20057;-59
2022/05/22 17:58:15;;;;;;;4.18;2.53;;;;;;;;;;10261944;28;20481;-58
2022/05/22 18:03:14;;;;;;;4.55;2.75;;;;;;;;;;10262705;28;20442;-59
2022/05/22 18:08:15;;;;;;;3.53;2.30;;;;;;;;;;10260999;28;20081;-59
2022/05/22 18:18:33;;;;;;;9.23;2.55;;;;;;;;;;10261748;28;20164;-59
2022/05/22 18:23:33;;;;;;;7.57;2.67;;;;;;;;;;10255028;28;20071;-59
2022/05/22 18:28:36;;;;;;;3.85;2.40;;;;;;;;;;10254620;28;20060;-58
2022/05/22 18:33:34;;;;;;;4.28;2.20;;;;;;;;;;10254757;28;20092;-58
2022/05/22 18:38:32;;;;;;;8.93;2.00;;;;;;;;;;10257357;28;20088;-58
2022/05/22 18:43:30;;;;;;;9.20;2.47;;;;;;;;;;10276224;28;20064;-57
2022/05/22 18:48:31;;;;;;;2.72;1.73;;;;;;;;;;10260508;28;20469;-59
2022/05/22 18:53:29;;;;;;;4.45;2.72;;;;;;;;;;10257815;28;20076;-59
2022/05/22 18:58:28;;;;;;;4.53;2.25;;;;;;;;;;10263557;28;20065;-58
2022/05/22 19:03:28;;;;;;;5.07;2.38;;;;;;;;;;10270260;28;20083;-58
2022/05/22 19:08:32;;;;;;;2.58;2.08;;;;;;;;;;10266308;28;20511;-58
2022/05/22 19:13:31;;;;;;;6.75;5.25;;;;;;;;;;10265637;28;20064;-58
2022/05/22 19:18:30;;;;;;;6.03;3.35;;;;;;;;;;10267442;28;20065;-58
2022/05/22 19:23:30;;;;;;;3.60;2.28;;;;;;;;;;10270310;28;20505;-58
2022/05/22 19:28:30;;;;;;;3.65;1.77;;;;;;;;;;10275179;28;20077;-60
2022/05/22 19:33:29;;;;;;;1.98;1.80;;;;;;;;;;10269610;28;20076;-59
2022/05/22 19:38:32;;;;;;;3.95;2.28;;;;;;;;;;10252089;28;20091;-59
2022/05/22 19:48:47;;;;;;;6.28;3.00;;;;;;;;;;10278993;28;20065;-59
2022/05/22 19:53:47;;;;;;;6.32;1.70;;;;;;;;;;10267051;28;20072;-58
2022/05/22 19:58:46;;;;;;;2.10;1.70;;;;;;;;;;10275982;28;20506;-58
2022/05/22 20:03:45;;;;;;;4.03;1.92;;;;;;;;;;10264058;28;20065;-59
2022/05/22 20:08:45;;;;;;;2.80;1.95;;;;;;;;;;10267043;28;20079;-58
2022/05/22 20:13:45;;;;;;;2.38;1.50;;;;;;;;;;10265723;28;20061;-59
2022/05/22 20:18:46;;;;;;;3.20;1.90;;;;;;;;;;10268195;28;20442;-58
2022/05/22 20:23:44;;;;;;;3.58;1.55;;;;;;;;;;10266377;28;20069;-59
2022/05/22 20:28:42;;;;;;;4.43;1.65;;;;;;;;;;10261650;28;20113;-59
2022/05/22 20:33:42;;;;;;;5.88;1.83;;;;;;;;;;10264450;28;20072;-57
2022/05/22 20:38:41;;;;;;;2.53;1.90;;;;;;;;;;10270569;28;20083;-59
2022/05/22 20:43:40;;;;;;;4.20;1.88;;;;;;;;;;10264351;28;20064;-59
2022/05/22 20:48:49;;;;;;;5.03;1.58;;;;;;;;;;10262485;28;20502;-59
2022/05/22 20:53:47;;;;;;;1.77;1.25;;;;;;;;;;10263550;28;20071;-59
2022/05/22 20:58:45;;;;;;;8.05;2.35;;;;;;;;;;10270417;28;20072;-58
2022/05/22 21:03:44;;;;;;;2.72;1.80;;;;;;;;;;10267908;28;20065;-58
2022/05/22 21:08:43;;;;;;;4.28;1.92;;;;;;;;;;10265874;28;20528;-56
2022/05/22 21:13:42;;;;;;;3.95;1.90;;;;;;;;;;10270885;28;20057;-58
2022/05/22 21:18:40;;;;;;;4.75;1.88;;;;;;;;;;10277393;28;20091;-59
2022/05/22 21:28:56;;;;;;;1.83;1.33;;;;;;;;;;10265522;28;20083;-60
2022/05/22 21:33:57;;;;;;;2.20;1.38;;;;;;;;;;10275048;28;20449;-59
2022/05/22 21:38:57;;;;;;;2.83;2.20;;;;;;;;;;10264506;28;20089;-59
2022/05/22 21:43:58;;;;;;;1.83;1.40;;;;;;;;;;10257772;28;20077;-58
2022/05/22 21:48:56;;;;;;;4.93;1.95;;;;;;;;;;10265664;28;20482;-58
2022/05/22 21:53:54;;;;;;;3.67;1.50;;;;;;;;;;10266300;28;20103;-59
2022/05/22 21:58:53;;;;;;;2.53;1.80;;;;;;;;;;10265349;28;20501;-57
2022/05/22 22:03:52;;;;;;;3.83;1.58;;;;;;;;;;10259638;28;20072;-58
2022/05/22 22:08:51;;;;;;;3.60;2.05;;;;;;;;;;10264935;28;20085;-58
2022/05/22 22:13:49;;;;;;;2.30;1.48;;;;;;;;;;10268318;28;20073;-59
2022/05/22 22:18:47;;;;;;;4.47;1.65;;;;;;;;;;10270004;28;20096;-59
2022/05/22 22:23:46;;;;;;;4.03;1.50;;;;;;;;;;10271302;28;20088;-59
2022/05/22 22:28:44;;;;;;;3.47;1.50;;;;;;;;;;10270729;28;20092;-59
2022/05/22 22:33:43;;;;;;;2.35;1.63;;;;;;;;;;10271636;28;20596;-59
2022/05/22 22:38:41;;;;;;;5.50;2.40;;;;;;;;;;10271515;28;20088;-60
2022/05/22 22:43:41;;;;;;;3.97;2.08;;;;;;;;;;10270676;28;20081;-59
2022/05/22 22:48:39;;;;;;;5.00;1.98;;;;;;;;;;10271363;28;20077;-59
2022/05/22 22:58:54;;;;;;;1.73;1.30;;;;;;;;;;10270194;28;20092;-59
2022/05/22 23:03:52;;;;;;;4.07;1.60;;;;;;;;;;10270091;28;20097;-59
2022/05/22 23:08:50;;;;;;;4.82;1.80;;;;;;;;;;10271464;28;20449;-59
2022/05/22 23:13:50;;;;;;;6.07;1.50;;;;;;;;;;10271306;28;20064;-59
2022/05/22 23:18:50;;;;;;;7.15;1.63;;;;;;;;;;10270695;28;20506;-59
2022/05/22 23:23:49;;;;;;;6.65;1.63;;;;;;;;;;10270444;28;20049;-59
2022/05/22 23:28:47;;;;;;;5.28;1.70;;;;;;;;;;10268992;28;20100;-59
2022/05/22 23:33:45;;;;;;;4.18;1.90;;;;;;;;;;10270084;28;20092;-60
2022/05/22 23:44:01;;;;;;;1.55;1.45;;;;;;;;;;10270280;28;20095;-60
2022/05/22 23:48:59;;;;;;;4.20;1.52;;;;;;;;;;10270241;28;20486;-59
2022/05/22 23:53:58;;;;;;;5.82;1.90;;;;;;;;;;10272245;28;20511;-59
2022/05/22 23:58:57;;;;;;;3.22;1.58;;;;;;;;;;10277439;28;20532;-60
